Time;durP1;ratioP1;P1;durP2;ratioP2;P2;SDS_P1;SDS_P2;PMS_P1;PMS_P2;Temp;Humidity;BMP_temperature;BMP_pressure;BME280_temperature;BME280_humidity;BME280_pressure;Samples;Min_cycle;Max_cycle;Signal;HPM_P1;HPM_P2
2021/04/12 00:01:26;;;;;;;4.55;2.70;;;;;;;;;;5096315;28;20190;-48
2021/04/12 00:04:04;;;;;;;6.95;3.28;;;;;;;;;;5096187;28;20190;-49
2021/04/12 00:06:33;;;;;;;7.63;3.38;;;;;;;;;;5095756;28;20193;-49
2021/04/12 00:09:05;;;;;;;5.43;2.25;;;;;;;;;;5095763;28;20210;-53
2021/04/12 00:11:44;;;;;;;6.07;3.08;;;;;;;;;;5095516;28;20229;-51
2021/04/12 00:14:13;;;;;;;6.85;2.95;;;;;;;;;;5095996;28;20201;-48
2021/04/12 00:16:42;;;;;;;10.75;3.05;;;;;;;;;;5095108;28;20263;-49
2021/04/12 00:19:24;;;;;;;5.07;2.85;;;;;;;;;;5095733;28;20218;-52
2021/04/12 00:21:53;;;;;;;6.78;3.58;;;;;;;;;;5099870;28;20198;-51
2021/04/12 00:24:23;;;;;;;4.90;2.80;;;;;;;;;;5100231;28;20206;-53
2021/04/12 00:27:01;;;;;;;5.03;2.83;;;;;;;;;;5099583;28;20179;-48
2021/04/12 00:29:31;;;;;;;6.05;2.60;;;;;;;;;;5099302;28;20208;-51
2021/04/12 00:32:01;;;;;;;5.30;3.25;;;;;;;;;;5100011;28;20298;-54
2021/04/12 00:34:32;;;;;;;6.40;3.30;;;;;;;;;;5099856;28;20194;-50
2021/04/12 00:37:01;;;;;;;7.72;3.25;;;;;;;;;;5098272;28;20229;-48
2021/04/12 00:39:36;;;;;;;5.85;2.90;;;;;;;;;;5108400;28;20208;-51
2021/04/12 00:42:21;;;;;;;8.98;3.05;;;;;;;;;;5099382;28;20208;-51
2021/04/12 00:45:10;;;;;;;7.05;2.58;;;;;;;;;;5099493;28;20186;-51
2021/04/12 00:47:41;;;;;;;4.07;2.13;;;;;;;;;;5099585;28;20220;-50
2021/04/12 00:50:23;;;;;;;6.20;2.25;;;;;;;;;;5099576;28;20174;-54
2021/04/12 00:53:13;;;;;;;4.82;2.63;;;;;;;;;;5099686;28;20221;-47
2021/04/12 00:55:42;;;;;;;8.05;2.95;;;;;;;;;;5099495;28;20202;-53
2021/04/12 00:58:14;;;;;;;6.03;2.47;;;;;;;;;;5082362;28;20217;-49
2021/04/12 01:00:44;;;;;;;8.27;2.88;;;;;;;;;;5099777;28;20202;-48
2021/04/12 01:03:19;;;;;;;10.38;2.92;;;;;;;;;;5097506;28;20222;-53
2021/04/12 01:05:52;;;;;;;10.18;2.85;;;;;;;;;;5099618;28;20205;-53
2021/04/12 01:08:30;;;;;;;5.07;2.13;;;;;;;;;;5098943;28;20194;-52
2021/04/12 01:11:14;;;;;;;7.40;2.45;;;;;;;;;;5098671;28;20205;-54
2021/04/12 01:13:48;;;;;;;5.38;2.80;;;;;;;;;;5099739;28;20178;-52
2021/04/12 01:16:31;;;;;;;5.40;2.10;;;;;;;;;;5099216;28;20190;-54
2021/04/12 01:24:45;;;;;;;4.63;2.40;;;;;;;;;;5276738;22;20238;-50
2021/04/12 01:27:27;;;;;;;6.65;2.63;;;;;;;;;;5079237;28;20218;-48
2021/04/12 01:33:07;;;;;;;6.30;2.10;;;;;;;;;;5059151;28;20225;-53
2021/04/12 01:36:00;;;;;;;5.13;3.10;;;;;;;;;;5053861;28;20218;-53
2021/04/12 01:38:36;;;;;;;3.60;1.92;;;;;;;;;;5059470;28;20194;-53
2021/04/12 01:41:34;;;;;;;5.45;2.55;;;;;;;;;;5079004;28;20266;-48
2021/04/12 01:44:15;;;;;;;6.68;2.90;;;;;;;;;;5078356;28;20199;-46
2021/04/12 01:46:43;;;;;;;5.43;2.45;;;;;;;;;;5062307;28;20207;-46
2021/04/12 01:49:23;;;;;;;8.63;3.00;;;;;;;;;;5078462;28;20210;-50
2021/04/12 01:52:05;;;;;;;4.18;2.53;;;;;;;;;;5078492;28;20230;-49
2021/04/12 01:54:38;;;;;;;5.78;3.70;;;;;;;;;;5077774;28;20187;-54
2021/04/12 01:57:30;;;;;;;5.78;3.63;;;;;;;;;;5077860;28;20222;-48
2021/04/12 02:00:13;;;;;;;4.53;2.85;;;;;;;;;;5077896;28;20202;-50
2021/04/12 02:02:42;;;;;;;4.40;3.00;;;;;;;;;;5078092;28;20194;-49
2021/04/12 02:05:22;;;;;;;5.18;3.45;;;;;;;;;;5062977;28;20204;-52
2021/04/12 02:08:27;;;;;;;7.13;3.17;;;;;;;;;;5057249;28;20211;-51
2021/04/12 02:11:06;;;;;;;12.98;4.05;;;;;;;;;;5057917;28;20211;-50
2021/04/12 02:16:41;;;;;;;5.50;3.30;;;;;;;;;;5072511;28;20166;-50
2021/04/12 02:19:19;;;;;;;5.97;3.45;;;;;;;;;;5077193;28;20203;-52
2021/04/12 02:22:17;;;;;;;7.50;3.33;;;;;;;;;;5077278;28;20203;-52
2021/04/12 02:24:46;;;;;;;6.80;2.95;;;;;;;;;;5077493;28;20217;-50
2021/04/12 02:27:18;;;;;;;7.18;4.00;;;;;;;;;;5077886;28;20199;-51
2021/04/12 02:29:58;;;;;;;6.30;4.05;;;;;;;;;;5077479;28;20290;-55
2021/04/12 02:32:38;;;;;;;6.40;3.67;;;;;;;;;;5077211;28;20289;-48
2021/04/12 02:35:18;;;;;;;7.20;3.20;;;;;;;;;;5077499;28;20240;-53
2021/04/12 02:37:53;;;;;;;5.20;3.72;;;;;;;;;;5077433;28;20210;-50
2021/04/12 02:40:27;;;;;;;11.07;5.07;;;;;;;;;;5077393;28;20216;-49
2021/04/12 02:43:19;;;;;;;10.02;4.38;;;;;;;;;;5077149;28;20282;-50
2021/04/12 02:46:01;;;;;;;4.95;3.50;;;;;;;;;;5077507;28;20210;-55
2021/04/12 02:48:33;;;;;;;7.45;3.90;;;;;;;;;;5077399;28;20195;-48
2021/04/12 02:51:18;;;;;;;8.70;3.65;;;;;;;;;;5079322;28;20183;-50
2021/04/12 02:54:05;;;;;;;8.15;4.07;;;;;;;;;;5096907;28;20245;-51
2021/04/12 02:56:55;;;;;;;7.10;3.97;;;;;;;;;;5083253;28;20199;-53
2021/04/12 02:59:30;;;;;;;9.75;4.30;;;;;;;;;;5081399;28;20186;-46
2021/04/12 03:02:05;;;;;;;10.30;4.22;;;;;;;;;;5082278;28;20223;-54
2021/04/12 03:04:43;;;;;;;5.70;3.90;;;;;;;;;;5072853;28;20221;-50
2021/04/12 03:07:30;;;;;;;7.18;3.80;;;;;;;;;;5070161;28;20218;-47
2021/04/12 03:10:24;;;;;;;6.68;3.10;;;;;;;;;;5044211;28;20206;-50
2021/04/12 03:13:00;;;;;;;9.23;4.85;;;;;;;;;;5030681;28;20225;-49
2021/04/12 03:15:55;;;;;;;7.90;4.10;;;;;;;;;;5076464;28;20182;-54
2021/04/12 03:18:32;;;;;;;15.73;5.32;;;;;;;;;;5076968;28;20202;-52
2021/04/12 03:21:10;;;;;;;9.27;4.68;;;;;;;;;;5075719;28;20237;-54
2021/04/12 03:23:46;;;;;;;5.85;3.60;;;;;;;;;;5056512;28;20211;-52
2021/04/12 03:26:31;;;;;;;9.23;4.40;;;;;;;;;;5057173;28;20195;-54
2021/04/12 03:29:07;;;;;;;14.55;4.45;;;;;;;;;;5026665;28;20754;-53
2021/04/12 03:32:01;;;;;;;10.15;5.10;;;;;;;;;;5056963;28;20226;-55
2021/04/12 03:34:31;;;;;;;7.10;4.90;;;;;;;;;;5064454;28;20209;-48
2021/04/12 03:37:22;;;;;;;9.25;5.70;;;;;;;;;;5075898;28;20221;-48
2021/04/12 03:39:56;;;;;;;11.70;4.40;;;;;;;;;;5056711;28;20217;-50
2021/04/12 03:43:01;;;;;;;9.75;4.95;;;;;;;;;;5076486;28;20190;-48
2021/04/12 03:46:02;;;;;;;9.00;5.82;;;;;;;;;;5076839;28;20198;-49
2021/04/12 03:51:45;;;;;;;16.25;5.70;;;;;;;;;;5059171;28;20260;-48
2021/04/12 03:54:27;;;;;;;15.25;6.55;;;;;;;;;;5075639;28;20254;-47
2021/04/12 04:00:13;;;;;;;17.20;5.15;;;;;;;;;;5074942;28;20216;-56
2021/04/12 04:02:55;;;;;;;16.45;6.80;;;;;;;;;;5096032;28;20233;-51
2021/04/12 04:05:41;;;;;;;11.40;6.38;;;;;;;;;;5092585;28;20202;-51
2021/04/12 04:08:25;;;;;;;9.95;4.35;;;;;;;;;;5050286;28;20235;-52
2021/04/12 04:10:59;;;;;;;15.00;6.13;;;;;;;;;;5036228;28;20218;-50
2021/04/12 04:13:32;;;;;;;6.28;4.43;;;;;;;;;;5036077;28;20196;-49
2021/04/12 04:16:17;;;;;;;26.38;5.70;;;;;;;;;;5036151;28;20219;-50
2021/04/12 04:18:58;;;;;;;7.07;4.47;;;;;;;;;;5036199;28;20224;-50
2021/04/12 04:21:55;;;;;;;8.13;5.00;;;;;;;;;;5035996;28;20203;-51
2021/04/12 04:24:32;;;;;;;5.53;4.22;;;;;;;;;;5035517;28;20187;-51
2021/04/12 04:27:10;;;;;;;7.95;4.68;;;;;;;;;;5035861;28;20187;-51
2021/04/12 04:30:01;;;;;;;7.78;4.40;;;;;;;;;;5035371;28;20215;-52
2021/04/12 04:32:52;;;;;;;14.70;6.30;;;;;;;;;;5018790;28;20280;-54
2021/04/12 04:35:51;;;;;;;7.63;4.78;;;;;;;;;;5033932;28;20196;-55
2021/04/12 04:38:45;;;;;;;10.85;4.50;;;;;;;;;;5035181;28;20208;-51
2021/04/12 04:41:30;;;;;;;8.65;4.00;;;;;;;;;;5011957;28;20221;-57
2021/04/12 04:44:13;;;;;;;11.68;5.18;;;;;;;;;;5032257;28;20216;-51
2021/04/12 04:47:05;;;;;;;8.57;5.10;;;;;;;;;;5022180;28;20251;-51
2021/04/12 04:49:56;;;;;;;8.05;4.78;;;;;;;;;;4992764;28;20303;-48
2021/04/12 04:52:59;;;;;;;26.35;6.55;;;;;;;;;;5015807;28;20236;-54
2021/04/12 04:55:31;;;;;;;5.68;4.55;;;;;;;;;;5015991;28;20192;-55
2021/04/12 04:58:07;;;;;;;12.18;4.72;;;;;;;;;;5015878;28;20347;-53
2021/04/12 05:00:44;;;;;;;13.48;7.63;;;;;;;;;;5015489;28;20204;-53
2021/04/12 05:03:33;;;;;;;11.73;5.50;;;;;;;;;;5016088;28;20215;-52
2021/04/12 05:06:18;;;;;;;8.43;5.03;;;;;;;;;;5036430;28;20184;-48
2021/04/12 05:09:07;;;;;;;9.02;5.63;;;;;;;;;;5039215;28;20212;-52
2021/04/12 05:11:42;;;;;;;10.02;5.05;;;;;;;;;;5039291;28;20311;-57
2021/04/12 05:17:40;;;;;;;7.85;4.55;;;;;;;;;;5036670;28;20270;-55
2021/04/12 05:20:36;;;;;;;10.73;4.57;;;;;;;;;;5038131;28;20210;-49
2021/04/12 05:23:17;;;;;;;14.00;7.32;;;;;;;;;;5032364;28;20203;-51
2021/04/12 05:26:09;;;;;;;12.43;6.00;;;;;;;;;;5038761;28;20195;-48
2021/04/12 05:28:46;;;;;;;13.82;6.65;;;;;;;;;;5044763;28;20260;-52
2021/04/12 05:31:37;;;;;;;6.13;4.65;;;;;;;;;;5039058;28;20210;-58
2021/04/12 05:34:16;;;;;;;6.95;4.65;;;;;;;;;;5034054;28;20204;-56
2021/04/12 05:37:02;;;;;;;7.25;4.78;;;;;;;;;;5038079;28;20302;-50
2021/04/12 05:40:01;;;;;;;6.97;4.40;;;;;;;;;;5052899;28;20274;-50
2021/04/12 05:42:32;;;;;;;7.05;5.20;;;;;;;;;;5098020;28;20212;-59
2021/04/12 05:45:24;;;;;;;7.20;4.85;;;;;;;;;;5098271;28;20190;-53
2021/04/12 05:48:19;;;;;;;13.80;6.15;;;;;;;;;;5059252;28;20291;-53
2021/04/12 05:51:07;;;;;;;9.55;5.80;;;;;;;;;;5039304;28;20192;-49
2021/04/12 05:53:56;;;;;;;12.50;5.88;;;;;;;;;;5034350;28;20200;-57
2021/04/12 05:56:52;;;;;;;12.18;6.55;;;;;;;;;;5037436;28;20258;-51
2021/04/12 05:59:43;;;;;;;10.40;5.32;;;;;;;;;;5029706;28;20206;-53
2021/04/12 06:02:20;;;;;;;9.95;6.75;;;;;;;;;;5037634;28;20196;-52
2021/04/12 06:04:52;;;;;;;10.88;7.15;;;;;;;;;;5036817;28;20215;-52
2021/04/12 06:07:39;;;;;;;13.10;7.97;;;;;;;;;;5037778;28;20195;-56
2021/04/12 06:10:32;;;;;;;10.70;6.10;;;;;;;;;;5037672;28;20195;-53
2021/04/12 06:13:07;;;;;;;12.23;5.90;;;;;;;;;;5049029;28;20203;-55
2021/04/12 06:15:53;;;;;;;9.43;6.20;;;;;;;;;;5048763;28;20198;-51
2021/04/12 06:18:30;;;;;;;18.98;5.88;;;;;;;;;;5036987;28;20191;-56
2021/04/12 06:21:16;;;;;;;10.73;6.13;;;;;;;;;;5036185;28;20223;-56
2021/04/12 06:23:54;;;;;;;15.98;6.35;;;;;;;;;;5022871;28;20242;-54
2021/04/12 06:26:52;;;;;;;14.73;6.63;;;;;;;;;;5036833;28;20337;-56
2021/04/12 06:29:38;;;;;;;8.93;5.93;;;;;;;;;;5036280;28;20238;-51
2021/04/12 06:36:05;;;;;;;8.35;5.60;;;;;;;;;;5030660;28;20240;-54
2021/04/12 06:39:00;;;;;;;8.63;5.43;;;;;;;;;;5036662;28;20219;-53
2021/04/12 06:41:51;;;;;;;10.73;5.70;;;;;;;;;;5053380;28;20186;-52
2021/04/12 06:44:46;;;;;;;8.10;6.65;;;;;;;;;;5036970;28;20205;-59
2021/04/12 06:47:43;;;;;;;10.13;6.90;;;;;;;;;;4983927;28;20304;-55
2021/04/12 06:50:41;;;;;;;10.55;6.57;;;;;;;;;;4956895;29;20206;-51
2021/04/12 06:53:20;;;;;;;10.27;7.32;;;;;;;;;;5010910;28;20229;-53
2021/04/12 06:56:11;;;;;;;9.38;5.95;;;;;;;;;;5016441;28;20209;-52
2021/04/12 06:59:05;;;;;;;10.07;6.07;;;;;;;;;;5016370;28;20265;-50
2021/04/12 07:01:44;;;;;;;15.57;6.30;;;;;;;;;;5016559;28;20200;-58
2021/04/12 07:04:43;;;;;;;17.70;6.85;;;;;;;;;;5016158;28;20220;-58
2021/04/12 07:07:29;;;;;;;8.63;6.55;;;;;;;;;;5016555;28;20218;-50
2021/04/12 07:10:10;;;;;;;8.88;5.93;;;;;;;;;;5015833;28;20245;-57
2021/04/12 07:15:51;;;;;;;7.85;6.40;;;;;;;;;;5017121;28;20331;-52
2021/04/12 07:18:36;;;;;;;11.80;6.60;;;;;;;;;;5016295;28;20260;-57
2021/04/12 07:21:19;;;;;;;8.80;5.82;;;;;;;;;;5015707;28;20256;-55
2021/04/12 07:24:08;;;;;;;8.15;6.00;;;;;;;;;;5014978;28;20211;-56
2021/04/12 07:27:00;;;;;;;7.93;5.65;;;;;;;;;;5014492;28;20200;-54
2021/04/12 07:29:45;;;;;;;10.68;5.75;;;;;;;;;;5016495;28;20193;-58
2021/04/12 07:35:25;;;;;;;8.45;6.05;;;;;;;;;;5033269;28;20267;-52
2021/04/12 07:38:10;;;;;;;9.93;6.97;;;;;;;;;;5054384;28;20203;-52
2021/04/12 07:40:57;;;;;;;9.68;6.43;;;;;;;;;;5054607;28;20199;-48
2021/04/12 07:43:42;;;;;;;25.80;7.53;;;;;;;;;;5054817;28;20259;-48
2021/04/12 07:46:35;;;;;;;9.30;5.75;;;;;;;;;;5053890;28;20207;-48
2021/04/12 07:49:21;;;;;;;8.82;6.45;;;;;;;;;;5024313;28;20251;-53
2021/04/12 07:52:12;;;;;;;8.90;6.30;;;;;;;;;;5014145;28;20215;-56
2021/04/12 07:54:56;;;;;;;10.55;7.10;;;;;;;;;;5014507;28;20275;-52
2021/04/12 07:57:52;;;;;;;9.32;6.50;;;;;;;;;;5013823;28;20196;-57
2021/04/12 08:00:39;;;;;;;8.98;6.28;;;;;;;;;;5013649;28;20188;-55
2021/04/12 08:03:35;;;;;;;8.70;6.60;;;;;;;;;;5015035;28;20200;-58
2021/04/12 08:06:20;;;;;;;7.35;5.70;;;;;;;;;;5006872;28;20227;-51
2021/04/12 08:09:02;;;;;;;10.95;7.20;;;;;;;;;;5016187;28;20275;-52
2021/04/12 08:11:48;;;;;;;11.05;7.30;;;;;;;;;;5014496;28;20192;-52
2021/04/12 08:14:37;;;;;;;15.65;7.97;;;;;;;;;;5015775;28;20197;-52
2021/04/12 08:17:31;;;;;;;8.95;7.07;;;;;;;;;;5022572;28;20205;-58
2021/04/12 08:20:18;;;;;;;21.02;8.68;;;;;;;;;;4993616;28;20224;-49
2021/04/12 08:23:01;;;;;;;10.93;8.15;;;;;;;;;;5032894;28;20223;-53
2021/04/12 08:25:52;;;;;;;12.85;8.93;;;;;;;;;;5035705;28;20192;-52
2021/04/12 08:28:48;;;;;;;14.57;9.80;;;;;;;;;;4994471;28;20236;-53
2021/04/12 08:31:39;;;;;;;13.68;11.52;;;;;;;;;;4973003;28;20214;-54
2021/04/12 08:37:31;;;;;;;14.95;9.95;;;;;;;;;;5036519;28;20236;-59
2021/04/12 08:40:13;;;;;;;13.73;10.40;;;;;;;;;;5095332;28;20220;-57
2021/04/12 08:42:43;;;;;;;11.50;8.43;;;;;;;;;;5099055;28;20444;-55
2021/04/12 08:45:47;;;;;;;13.25;10.02;;;;;;;;;;5099370;28;20428;-47
2021/04/12 08:51:44;;;;;;;13.82;9.00;;;;;;;;;;5099176;28;20177;-49
2021/04/12 08:54:35;;;;;;;11.48;8.50;;;;;;;;;;5095573;28;20203;-50
2021/04/12 08:57:18;;;;;;;16.40;10.25;;;;;;;;;;5078446;28;20218;-55
2021/04/12 09:00:09;;;;;;;12.77;9.45;;;;;;;;;;5078827;28;20239;-48
2021/04/12 09:02:43;;;;;;;11.52;8.77;;;;;;;;;;5078925;28;20199;-51
2021/04/12 09:05:17;;;;;;;10.20;8.85;;;;;;;;;;5058487;28;20192;-54
2021/04/12 09:07:59;;;;;;;12.55;9.02;;;;;;;;;;5068446;28;20213;-47
2021/04/12 09:10:46;;;;;;;13.65;9.18;;;;;;;;;;5077336;28;20217;-49
2021/04/12 09:13:40;;;;;;;11.65;8.65;;;;;;;;;;5078818;28;20226;-52
2021/04/12 09:16:34;;;;;;;12.77;8.30;;;;;;;;;;5078735;28;20226;-52
2021/04/12 09:19:38;;;;;;;9.85;8.73;;;;;;;;;;5078347;28;20190;-54
2021/04/12 09:22:20;;;;;;;10.10;7.45;;;;;;;;;;5078410;28;20191;-53
2021/04/12 09:25:01;;;;;;;9.93;7.43;;;;;;;;;;5078210;28;20201;-45
2021/04/12 09:27:44;;;;;;;9.53;7.50;;;;;;;;;;5079006;28;20218;-51
2021/04/12 09:30:42;;;;;;;12.37;7.47;;;;;;;;;;5061794;28;20449;-49
2021/04/12 09:33:32;;;;;;;12.30;9.00;;;;;;;;;;5057829;28;20490;-55
2021/04/12 09:36:14;;;;;;;9.20;6.40;;;;;;;;;;5062810;28;21379;-56
2021/04/12 09:39:00;;;;;;;6.60;5.80;;;;;;;;;;5063228;28;20481;-49
2021/04/12 09:41:49;;;;;;;8.30;6.77;;;;;;;;;;5058062;28;20458;-51
2021/04/12 09:44:47;;;;;;;8.27;5.70;;;;;;;;;;5061514;28;20446;-53
2021/04/12 09:47:52;;;;;;;7.33;5.53;;;;;;;;;;5058551;28;20433;-55
2021/04/12 09:50:38;;;;;;;6.30;5.70;;;;;;;;;;5065794;28;20440;-55
2021/04/12 09:53:31;;;;;;;10.50;5.80;;;;;;;;;;5075297;28;20491;-48
2021/04/12 09:56:23;;;;;;;6.20;5.43;;;;;;;;;;5077641;28;20512;-53
2021/04/12 10:02:16;;;;;;;7.47;5.17;;;;;;;;;;5016975;28;20429;-54
2021/04/12 10:05:19;;;;;;;6.13;3.83;;;;;;;;;;5075748;28;20483;-55
2021/04/12 10:08:09;;;;;;;8.23;4.30;;;;;;;;;;5096734;28;20501;-58
2021/04/12 10:11:04;;;;;;;4.77;3.10;;;;;;;;;;5091602;28;20460;-49
2021/04/12 10:13:48;;;;;;;9.03;6.07;;;;;;;;;;5058972;28;20505;-50
2021/04/12 10:16:33;;;;;;;5.10;3.60;;;;;;;;;;5077337;28;20444;-55
2021/04/12 10:19:34;;;;;;;7.10;4.60;;;;;;;;;;5089415;28;20473;-52
2021/04/12 10:22:23;;;;;;;6.80;3.80;;;;;;;;;;5085813;28;20474;-55
2021/04/12 10:24:54;;;;;;;9.90;3.47;;;;;;;;;;5092380;28;20476;-53
2021/04/12 10:27:27;;;;;;;4.90;3.13;;;;;;;;;;5094752;28;20542;-56
2021/04/12 10:30:04;;;;;;;6.33;3.30;;;;;;;;;;5095514;28;20444;-54
2021/04/12 10:32:33;;;;;;;3.50;3.03;;;;;;;;;;5095279;28;20479;-51
2021/04/12 10:35:01;;;;;;;5.00;2.73;;;;;;;;;;5095743;28;20447;-52
2021/04/12 10:37:41;;;;;;;4.57;2.50;;;;;;;;;;5094696;28;20452;-53
2021/04/12 10:40:16;;;;;;;5.43;2.70;;;;;;;;;;5095860;28;20440;-58
2021/04/12 10:43:00;;;;;;;9.00;5.20;;;;;;;;;;5080458;28;20460;-55
2021/04/12 10:45:50;;;;;;;7.47;3.30;;;;;;;;;;5085188;28;20464;-55
2021/04/12 10:48:21;;;;;;;4.30;2.33;;;;;;;;;;5086633;28;20512;-56
2021/04/12 10:51:04;;;;;;;4.90;2.80;;;;;;;;;;5081826;28;20453;-55
2021/04/12 10:54:03;;;;;;;3.70;2.83;;;;;;;;;;5091051;28;20488;-55
2021/04/12 10:56:36;;;;;;;8.25;2.63;;;;;;;;;;5092511;28;20198;-50
2021/04/12 10:59:18;;;;;;;5.00;3.15;;;;;;;;;;5080820;28;20222;-54
2021/04/12 11:02:05;;;;;;;5.95;2.92;;;;;;;;;;5074093;28;20252;-54
2021/04/12 11:04:43;;;;;;;6.80;4.20;;;;;;;;;;5098427;28;20200;-50
2021/04/12 11:07:14;;;;;;;13.45;4.72;;;;;;;;;;5078413;28;20199;-50
2021/04/12 11:09:56;;;;;;;5.75;4.25;;;;;;;;;;5074908;28;20194;-49
2021/04/12 11:12:43;;;;;;;8.65;6.30;;;;;;;;;;5074314;28;20218;-49
2021/04/12 11:15:18;;;;;;;10.05;5.28;;;;;;;;;;5094708;28;20196;-57
2021/04/12 11:17:50;;;;;;;7.88;4.63;;;;;;;;;;5094012;28;20198;-56
2021/04/12 11:20:20;;;;;;;8.93;4.25;;;;;;;;;;5095698;28;20190;-53
2021/04/12 11:23:24;;;;;;;7.40;4.33;;;;;;;;;;5095380;28;20262;-55
2021/04/12 11:25:55;;;;;;;5.50;3.97;;;;;;;;;;5091727;28;20448;-56
2021/04/12 11:28:46;;;;;;;7.70;3.30;;;;;;;;;;5096218;28;20528;-52
2021/04/12 11:31:47;;;;;;;5.60;2.40;;;;;;;;;;5096199;28;20447;-48
2021/04/12 11:34:20;;;;;;;4.13;1.73;;;;;;;;;;5074389;28;20476;-49
2021/04/12 11:36:51;;;;;;;6.82;1.58;;;;;;;;;;5079762;28;20203;-58
2021/04/12 11:39:25;;;;;;;4.72;1.50;;;;;;;;;;5069846;28;20191;-52
2021/04/12 11:41:55;;;;;;;4.15;1.40;;;;;;;;;;5064245;28;20261;-55
2021/04/12 11:44:24;;;;;;;3.28;1.33;;;;;;;;;;5072490;28;20242;-55
2021/04/12 11:47:15;;;;;;;3.55;1.38;;;;;;;;;;5058188;28;20270;-52
2021/04/12 11:49:57;;;;;;;3.30;1.00;;;;;;;;;;5066508;28;20202;-52
2021/04/12 11:52:29;;;;;;;5.22;2.88;;;;;;;;;;5096481;28;20205;-50
2021/04/12 11:54:58;;;;;;;5.30;2.78;;;;;;;;;;5086752;28;20198;-52
2021/04/12 11:57:40;;;;;;;3.00;2.00;;;;;;;;;;5075802;28;20186;-51
2021/04/12 12:00:16;;;;;;;5.60;2.00;;;;;;;;;;5075523;28;20194;-54
2021/04/12 12:02:57;;;;;;;2.40;1.25;;;;;;;;;;5075343;28;20237;-56
2021/04/12 12:05:29;;;;;;;3.20;1.60;;;;;;;;;;5074944;28;20214;-50
2021/04/12 12:08:06;;;;;;;2.50;1.35;;;;;;;;;;5075640;28;20248;-48
2021/04/12 12:13:39;;;;;;;4.50;2.40;;;;;;;;;;5075617;28;20236;-51
2021/04/12 12:16:14;;;;;;;2.83;1.67;;;;;;;;;;5083135;28;20251;-52
2021/04/12 12:18:52;;;;;;;5.40;1.90;;;;;;;;;;5069164;28;20236;-52
2021/04/12 12:21:21;;;;;;;2.78;1.35;;;;;;;;;;5078839;28;20312;-47
2021/04/12 12:24:00;;;;;;;3.40;2.00;;;;;;;;;;5075613;28;20209;-51
2021/04/12 12:26:38;;;;;;;6.68;2.75;;;;;;;;;;5074827;28;20209;-52
2021/04/12 12:29:15;;;;;;;8.75;3.35;;;;;;;;;;5072675;28;20261;-49
2021/04/12 12:31:53;;;;;;;25.55;3.63;;;;;;;;;;5065218;28;20253;-52
2021/04/12 12:34:28;;;;;;;8.57;2.92;;;;;;;;;;5058514;28;20217;-52
2021/04/12 12:36:58;;;;;;;12.70;2.63;;;;;;;;;;5091800;28;20213;-54
2021/04/12 12:42:31;;;;;;;12.75;4.10;;;;;;;;;;5070965;28;20283;-56
2021/04/12 12:45:05;;;;;;;10.30;5.05;;;;;;;;;;5076182;28;20218;-54
2021/04/12 12:47:35;;;;;;;9.68;5.63;;;;;;;;;;5075341;28;20182;-50
2021/04/12 12:50:04;;;;;;;18.60;10.45;;;;;;;;;;5075349;28;20213;-47
2021/04/12 12:52:34;;;;;;;13.63;7.85;;;;;;;;;;5074942;28;20241;-54
2021/04/12 12:58:08;;;;;;;5.47;3.90;;;;;;;;;;5055571;28;20433;-45
2021/04/12 13:00:45;;;;;;;6.90;4.50;;;;;;;;;;5055369;28;20208;-52
2021/04/12 13:03:29;;;;;;;6.53;4.00;;;;;;;;;;5054831;28;20235;-52
2021/04/12 13:05:57;;;;;;;7.45;4.25;;;;;;;;;;5074758;28;20229;-56
2021/04/12 13:08:26;;;;;;;10.43;4.95;;;;;;;;;;5075185;28;20266;-51
2021/04/12 13:11:20;;;;;;;6.57;5.50;;;;;;;;;;5089824;28;20186;-53
2021/04/12 13:13:47;;;;;;;5.97;4.72;;;;;;;;;;5089720;28;20394;-55
2021/04/12 13:16:15;;;;;;;9.45;5.97;;;;;;;;;;5075025;28;20210;-55
2021/04/12 13:18:45;;;;;;;9.75;5.80;;;;;;;;;;5092940;28;20217;-51
2021/04/12 13:21:16;;;;;;;8.93;5.32;;;;;;;;;;5095655;28;20206;-55
2021/04/12 13:23:56;;;;;;;9.88;5.80;;;;;;;;;;5079649;28;20224;-54
2021/04/12 13:26:39;;;;;;;8.32;6.60;;;;;;;;;;5075808;28;20179;-53
2021/04/12 13:29:10;;;;;;;8.13;5.97;;;;;;;;;;5078554;28;20195;-49
2021/04/12 13:31:47;;;;;;;9.50;7.15;;;;;;;;;;5078955;28;20203;-52
2021/04/12 13:34:19;;;;;;;10.15;7.03;;;;;;;;;;5079116;28;20202;-58
2021/04/12 13:37:07;;;;;;;13.48;7.60;;;;;;;;;;5079395;28;20217;-49
2021/04/12 13:39:44;;;;;;;9.95;7.55;;;;;;;;;;5079574;28;20198;-53
2021/04/12 13:42:14;;;;;;;9.63;6.65;;;;;;;;;;5078844;28;20271;-52
2021/04/12 13:45:01;;;;;;;7.43;5.28;;;;;;;;;;5078823;28;20198;-52
2021/04/12 13:47:31;;;;;;;5.90;5.20;;;;;;;;;;5078961;28;20213;-53
2021/04/12 13:50:09;;;;;;;6.18;5.03;;;;;;;;;;5078437;28;20266;-44
2021/04/12 13:52:51;;;;;;;6.82;5.07;;;;;;;;;;5078121;28;20218;-50
2021/04/12 13:55:24;;;;;;;6.68;5.38;;;;;;;;;;5089323;28;20213;-52
2021/04/12 13:57:53;;;;;;;13.75;9.25;;;;;;;;;;5081763;28;20206;-50
2021/04/12 14:00:30;;;;;;;9.35;7.40;;;;;;;;;;5079493;28;20279;-52
2021/04/12 14:02:58;;;;;;;9.00;7.65;;;;;;;;;;5075847;28;20234;-55
2021/04/12 14:05:27;;;;;;;9.27;7.15;;;;;;;;;;5078180;28;20214;-49
2021/04/12 14:08:11;;;;;;;7.68;5.82;;;;;;;;;;5078023;28;20198;-53
2021/04/12 14:10:41;;;;;;;6.75;6.03;;;;;;;;;;5062906;28;20259;-49
2021/04/12 14:13:43;;;;;;;6.28;5.60;;;;;;;;;;5082699;28;20217;-49
2021/04/12 14:16:17;;;;;;;9.57;5.72;;;;;;;;;;5077451;28;20475;-53
2021/04/12 14:18:45;;;;;;;9.85;5.70;;;;;;;;;;5098429;28;20193;-52
2021/04/12 14:21:25;;;;;;;8.13;7.13;;;;;;;;;;5098326;28;20253;-52
2021/04/12 14:23:58;;;;;;;5.78;5.15;;;;;;;;;;5097664;28;20201;-49
2021/04/12 14:26:28;;;;;;;13.35;6.75;;;;;;;;;;5097777;28;20296;-51
2021/04/12 14:28:56;;;;;;;6.28;5.35;;;;;;;;;;5095625;28;20198;-50
2021/04/12 14:31:27;;;;;;;9.48;5.32;;;;;;;;;;5086161;28;20198;-51
2021/04/12 14:34:09;;;;;;;5.78;5.18;;;;;;;;;;5086615;28;20222;-44
2021/04/12 14:36:40;;;;;;;7.72;5.43;;;;;;;;;;5087436;28;20185;-56
2021/04/12 14:39:08;;;;;;;8.23;4.97;;;;;;;;;;5097353;28;20194;-53
2021/04/12 14:41:52;;;;;;;10.18;5.40;;;;;;;;;;5096991;28;20186;-51
2021/04/12 14:44:50;;;;;;;6.15;5.05;;;;;;;;;;5097415;28;20202;-52
2021/04/12 14:47:30;;;;;;;5.95;4.72;;;;;;;;;;5094503;28;20190;-58
2021/04/12 14:50:08;;;;;;;7.55;4.85;;;;;;;;;;5075992;28;20199;-59
2021/04/12 14:53:10;;;;;;;5.80;4.55;;;;;;;;;;5075811;28;20238;-54
2021/04/12 14:55:39;;;;;;;5.90;4.10;;;;;;;;;;5093995;28;20269;-48
2021/04/12 14:58:10;;;;;;;5.95;4.60;;;;;;;;;;5096488;28;20190;-55
2021/04/12 15:01:12;;;;;;;6.78;4.00;;;;;;;;;;5096207;28;20183;-47
2021/04/12 15:03:48;;;;;;;4.45;3.72;;;;;;;;;;5096006;28;20225;-51
2021/04/12 15:06:18;;;;;;;8.45;4.32;;;;;;;;;;5095681;28;20217;-54
2021/04/12 15:08:54;;;;;;;4.95;4.05;;;;;;;;;;5091885;28;20198;-54
2021/04/12 15:11:27;;;;;;;8.73;4.85;;;;;;;;;;5075989;28;20202;-50
2021/04/12 15:13:59;;;;;;;5.05;3.58;;;;;;;;;;5078948;28;20275;-50
2021/04/12 15:16:38;;;;;;;5.03;4.05;;;;;;;;;;5095390;28;20234;-56
2021/04/12 15:19:11;;;;;;;6.13;4.20;;;;;;;;;;5092779;28;20202;-46
2021/04/12 15:21:57;;;;;;;7.93;4.25;;;;;;;;;;5095339;28;20232;-59
2021/04/12 15:24:26;;;;;;;5.30;3.83;;;;;;;;;;5092644;28;20349;-57
2021/04/12 15:26:58;;;;;;;7.32;4.35;;;;;;;;;;5094649;28;20537;-58
2021/04/12 15:29:51;;;;;;;3.95;3.50;;;;;;;;;;5094810;28;20202;-50
2021/04/12 15:32:21;;;;;;;5.13;3.80;;;;;;;;;;5094536;28;20230;-49
2021/04/12 15:34:50;;;;;;;3.83;2.85;;;;;;;;;;5088469;28;20206;-48
2021/04/12 15:40:26;;;;;;;4.70;3.50;;;;;;;;;;5090503;28;20300;-51
2021/04/12 15:42:58;;;;;;;6.40;3.85;;;;;;;;;;5091644;28;20309;-49
2021/04/12 15:45:45;;;;;;;4.20;3.30;;;;;;;;;;5081434;28;20186;-49
2021/04/12 15:48:15;;;;;;;8.50;3.75;;;;;;;;;;5093166;28;20233;-51
2021/04/12 15:50:44;;;;;;;4.05;3.47;;;;;;;;;;5093747;28;20194;-54
2021/04/12 15:53:18;;;;;;;7.78;4.53;;;;;;;;;;5093441;28;20296;-50
2021/04/12 15:58:30;;;;;;;7.30;4.22;;;;;;;;;;5074986;28;20205;-53
2021/04/12 16:01:04;;;;;;;4.10;3.17;;;;;;;;;;5080597;28;20243;-51
2021/04/12 16:03:44;;;;;;;5.75;2.90;;;;;;;;;;5068284;28;20273;-55
2021/04/12 16:06:12;;;;;;;4.53;3.40;;;;;;;;;;5089413;28;20276;-53
2021/04/12 16:08:45;;;;;;;6.63;3.05;;;;;;;;;;5095274;28;20209;-51
2021/04/12 16:11:33;;;;;;;6.45;3.08;;;;;;;;;;5095997;28;20229;-55
2021/04/12 16:14:11;;;;;;;3.50;2.63;;;;;;;;;;5089976;28;20249;-52
2021/04/12 16:16:40;;;;;;;4.32;2.70;;;;;;;;;;5095177;28;20210;-59
2021/04/12 16:19:19;;;;;;;7.13;2.80;;;;;;;;;;5109000;28;20208;-54
2021/04/12 16:21:51;;;;;;;6.20;3.85;;;;;;;;;;5096500;28;20197;-53
2021/04/12 16:24:38;;;;;;;4.75;2.80;;;;;;;;;;5087585;28;20190;-50
2021/04/12 16:27:10;;;;;;;4.47;2.92;;;;;;;;;;5087840;28;20246;-47
2021/04/12 16:29:44;;;;;;;4.13;2.72;;;;;;;;;;5092909;28;20202;-43
2021/04/12 16:32:21;;;;;;;8.15;3.15;;;;;;;;;;5091845;28;20205;-52
2021/04/12 16:34:53;;;;;;;6.78;3.50;;;;;;;;;;5084962;28;20220;-51
2021/04/12 16:40:25;;;;;;;3.97;2.35;;;;;;;;;;5089560;28;20239;-54
2021/04/12 16:42:59;;;;;;;4.07;2.67;;;;;;;;;;5091687;28;20220;-51
2021/04/12 16:45:28;;;;;;;4.82;2.85;;;;;;;;;;5090418;28;20209;-49
2021/04/12 16:48:01;;;;;;;5.15;3.45;;;;;;;;;;5088474;28;20211;-50
2021/04/12 16:50:30;;;;;;;6.75;3.15;;;;;;;;;;5087199;28;20196;-52
2021/04/12 16:53:34;;;;;;;6.13;3.75;;;;;;;;;;5083074;28;20213;-51
2021/04/12 16:56:02;;;;;;;4.70;3.00;;;;;;;;;;5094034;28;20221;-54
2021/04/12 16:58:31;;;;;;;3.85;2.10;;;;;;;;;;5091407;28;20207;-49